Time;durP1;ratioP1;P1;durP2;ratioP2;P2;SDS_P1;SDS_P2;PMS_P1;PMS_P2;Temp;Humidity;BMP_temperature;BMP_pressure;BME280_temperature;BME280_humidity;BME280_pressure;Samples;Min_cycle;Max_cycle;Signal;HPM_P1;HPM_P2
2022/10/27 00:01:46;;;;;;;2.40;1.60;;;10.70;99.90;;;;;;491910;241;28154;-72
2022/10/27 00:03:48;;;;;;;1.67;1.57;;;10.70;99.90;;;;;;493793;241;28328;-69
2022/10/27 00:05:49;;;;;;;1.90;1.70;;;10.70;99.90;;;;;;493774;241;28387;-70
2022/10/27 00:07:50;;;;;;;1.70;1.60;;;10.70;99.90;;;;;;493782;241;27987;-69
2022/10/27 00:09:51;;;;;;;1.90;1.80;;;10.60;99.90;;;;;;493788;241;27940;-70
2022/10/27 00:11:53;;;;;;;2.50;2.10;;;10.60;99.90;;;;;;493788;241;27944;-70
2022/10/27 00:13:54;;;;;;;1.50;1.40;;;10.50;99.90;;;;;;493774;241;27821;-70
2022/10/27 00:15:55;;;;;;;3.00;1.70;;;10.50;99.90;;;;;;493776;241;27502;-69
2022/10/27 00:17:56;;;;;;;1.60;1.50;;;10.50;99.90;;;;;;493810;241;28422;-70
2022/10/27 00:19:58;;;;;;;1.40;1.30;;;10.50;99.90;;;;;;487959;241;28042;-70
2022/10/27 00:21:59;;;;;;;1.70;1.60;;;10.50;99.90;;;;;;475357;250;27885;-70
2022/10/27 00:24:00;;;;;;;2.70;1.53;;;10.50;99.90;;;;;;475352;250;27863;-69
2022/10/27 00:26:01;;;;;;;1.80;1.70;;;10.50;99.90;;;;;;475329;250;28399;-69
2022/10/27 00:28:03;;;;;;;1.60;1.50;;;10.60;99.90;;;;;;475370;249;28324;-70
2022/10/27 00:30:04;;;;;;;1.83;1.70;;;10.70;99.90;;;;;;475350;249;28210;-70
2022/10/27 00:32:05;;;;;;;1.73;1.63;;;10.70;99.90;;;;;;475368;249;27536;-70
2022/10/27 00:34:06;;;;;;;1.90;1.80;;;10.70;99.90;;;;;;475375;250;28110;-70
2022/10/27 00:36:08;;;;;;;1.50;1.40;;;10.60;99.90;;;;;;475363;249;27889;-69
2022/10/27 00:38:09;;;;;;;2.00;1.90;;;10.60;99.90;;;;;;475363;250;27977;-69
2022/10/27 00:40:10;;;;;;;1.67;1.57;;;10.60;99.90;;;;;;475371;249;27868;-69
2022/10/27 00:42:12;;;;;;;2.43;1.50;;;10.60;99.90;;;;;;475364;249;27788;-70
2022/10/27 00:44:13;;;;;;;2.93;1.97;;;10.60;99.90;;;;;;475362;249;27803;-70
2022/10/27 00:46:14;;;;;;;1.83;1.70;;;10.60;99.90;;;;;;475346;249;27892;-70
2022/10/27 00:48:15;;;;;;;2.90;1.70;;;10.60;99.90;;;;;;475360;250;28487;-71
2022/10/27 00:50:16;;;;;;;2.20;1.80;;;10.50;99.90;;;;;;475319;250;28467;-70
2022/10/27 00:52:18;;;;;;;4.07;1.67;;;10.50;99.90;;;;;;475346;250;28227;-70
2022/10/27 00:54:19;;;;;;;1.60;1.50;;;10.40;99.90;;;;;;475359;250;28038;-70
2022/10/27 00:56:20;;;;;;;3.43;2.27;;;10.40;99.90;;;;;;475389;250;27806;-70
2022/10/27 00:58:21;;;;;;;1.83;1.60;;;10.30;99.90;;;;;;475396;250;28028;-72
2022/10/27 01:00:23;;;;;;;5.37;1.83;;;10.40;99.90;;;;;;475395;250;27995;-69
2022/10/27 01:02:24;;;;;;;2.10;2.00;;;10.40;99.90;;;;;;475400;250;27581;-71
2022/10/27 01:04:25;;;;;;;1.70;1.60;;;10.50;99.90;;;;;;475384;250;27857;-70
2022/10/27 01:06:26;;;;;;;1.33;1.33;;;10.50;99.90;;;;;;475391;249;27910;-70
2022/10/27 01:08:28;;;;;;;2.43;1.60;;;10.50;99.90;;;;;;475414;249;27889;-72
2022/10/27 01:10:29;;;;;;;2.40;1.70;;;10.40;99.90;;;;;;475398;249;27932;-70
2022/10/27 01:12:30;;;;;;;1.80;1.70;;;10.40;99.90;;;;;;475351;249;28428;-71
2022/10/27 01:14:31;;;;;;;2.00;1.90;;;10.30;99.90;;;;;;475350;249;28475;-70
2022/10/27 01:16:33;;;;;;;2.70;1.63;;;10.40;99.90;;;;;;475359;249;28367;-69
2022/10/27 01:18:34;;;;;;;3.27;1.93;;;10.30;99.90;;;;;;475368;250;28013;-72
2022/10/27 01:20:35;;;;;;;10.27;1.70;;;10.30;99.90;;;;;;475340;249;28115;-71
2022/10/27 01:22:36;;;;;;;1.77;1.67;;;10.20;99.90;;;;;;475357;249;27690;-70
2022/10/27 01:24:38;;;;;;;1.60;1.50;;;10.20;99.90;;;;;;475351;249;27799;-69
2022/10/27 01:26:39;;;;;;;2.00;1.70;;;10.20;99.90;;;;;;475351;249;27932;-70
2022/10/27 01:28:40;;;;;;;1.80;1.63;;;10.20;99.90;;;;;;475348;249;27744;-70
2022/10/27 01:30:41;;;;;;;1.53;1.43;;;10.30;99.90;;;;;;475337;249;27936;-70
2022/10/27 01:32:43;;;;;;;1.87;1.77;;;10.30;99.90;;;;;;475335;250;28064;-70
2022/10/27 01:34:44;;;;;;;2.50;1.97;;;10.20;99.90;;;;;;475048;249;27663;-70
2022/10/27 01:36:45;;;;;;;1.93;1.83;;;10.10;99.90;;;;;;475350;249;28235;-71
2022/10/27 01:38:46;;;;;;;2.00;1.90;;;10.10;99.90;;;;;;475339;249;28172;-72
2022/10/27 01:40:48;;;;;;;2.03;1.83;;;10.00;99.90;;;;;;470298;241;28493;-70
2022/10/27 01:42:49;;;;;;;2.03;1.67;;;10.00;99.90;;;;;;467139;254;27831;-70
2022/10/27 01:44:50;;;;;;;1.80;1.70;;;10.10;99.90;;;;;;466998;255;27662;-71
2022/10/27 01:46:51;;;;;;;1.70;1.60;;;10.10;99.90;;;;;;467344;253;28052;-71
2022/10/27 01:48:53;;;;;;;1.60;1.50;;;10.20;99.90;;;;;;467169;253;27615;-72
2022/10/27 01:50:54;;;;;;;1.77;1.67;;;10.10;99.90;;;;;;469450;242;27966;-69
2022/10/27 01:52:55;;;;;;;1.80;1.70;;;10.10;99.90;;;;;;485605;244;28177;-73
2022/10/27 01:54:56;;;;;;;1.93;1.83;;;10.00;99.90;;;;;;485553;244;28071;-71
2022/10/27 01:56:58;;;;;;;1.60;1.50;;;9.90;99.90;;;;;;485555;244;27869;-70
2022/10/27 01:58:59;;;;;;;1.67;1.57;;;9.90;99.90;;;;;;485559;244;27961;-70
2022/10/27 02:01:00;;;;;;;1.80;1.70;;;9.90;99.90;;;;;;485556;244;27967;-70
2022/10/27 02:03:01;;;;;;;1.40;1.40;;;10.00;99.90;;;;;;485544;244;27886;-71
2022/10/27 02:05:03;;;;;;;1.67;1.57;;;10.00;99.90;;;;;;485552;244;28349;-70
2022/10/27 02:07:04;;;;;;;2.90;1.80;;;10.10;99.90;;;;;;485555;244;28531;-71
2022/10/27 02:09:05;;;;;;;1.70;1.60;;;10.20;99.90;;;;;;485551;244;28513;-69
2022/10/27 02:11:06;;;;;;;1.77;1.67;;;10.10;99.90;;;;;;485556;244;27959;-70
2022/10/27 02:13:08;;;;;;;1.80;1.70;;;10.00;99.90;;;;;;485551;244;28003;-72
2022/10/27 02:15:09;;;;;;;2.07;1.73;;;9.90;99.90;;;;;;485555;244;27845;-70
2022/10/27 02:17:10;;;;;;;5.93;2.10;;;9.90;99.90;;;;;;485556;244;27909;-69
2022/10/27 02:19:11;;;;;;;1.93;1.83;;;9.90;99.90;;;;;;485534;244;29548;-69
2022/10/27 02:21:13;;;;;;;2.67;2.00;;;9.90;99.90;;;;;;485554;240;27617;-69
2022/10/27 02:23:14;;;;;;;2.30;2.10;;;9.90;99.90;;;;;;485562;244;27900;-70
2022/10/27 02:25:15;;;;;;;1.70;1.60;;;9.90;99.90;;;;;;485553;244;27952;-69
2022/10/27 02:27:17;;;;;;;1.80;1.70;;;9.90;99.90;;;;;;485546;244;27984;-69
2022/10/27 02:29:18;;;;;;;1.77;1.67;;;9.90;99.90;;;;;;485564;244;27716;-69
2022/10/27 02:31:19;;;;;;;1.90;1.80;;;9.90;99.90;;;;;;485548;244;27966;-69
2022/10/27 02:33:20;;;;;;;2.00;1.67;;;9.90;99.90;;;;;;485554;244;28171;-71
2022/10/27 02:35:21;;;;;;;1.87;1.77;;;9.90;99.90;;;;;;485545;244;28103;-69
2022/10/27 02:37:23;;;;;;;1.93;1.83;;;9.90;99.90;;;;;;485545;244;28328;-70
2022/10/27 02:39:24;;;;;;;3.50;1.53;;;9.80;99.90;;;;;;485536;244;28290;-69
2022/10/27 02:41:25;;;;;;;1.60;1.50;;;9.80;99.90;;;;;;485555;244;28369;-69
2022/10/27 02:43:26;;;;;;;1.87;1.77;;;9.80;99.90;;;;;;485546;244;28551;-70
2022/10/27 02:45:28;;;;;;;1.63;1.53;;;9.80;99.90;;;;;;485551;245;27861;-69
2022/10/27 02:47:29;;;;;;;1.73;1.63;;;9.80;99.90;;;;;;485552;244;27890;-69
2022/10/27 02:49:30;;;;;;;1.70;1.60;;;9.90;99.90;;;;;;485554;244;28311;-70
2022/10/27 02:51:31;;;;;;;1.43;1.43;;;9.80;99.90;;;;;;485020;244;28025;-69
2022/10/27 02:53:33;;;;;;;1.83;1.73;;;9.80;99.90;;;;;;484526;245;27933;-71
2022/10/27 02:55:34;;;;;;;1.90;1.60;;;9.90;99.90;;;;;;484534;245;28083;-70
2022/10/27 02:57:35;;;;;;;1.60;1.50;;;9.90;99.90;;;;;;484604;245;27977;-70
2022/10/27 02:59:36;;;;;;;1.40;1.40;;;9.80;99.90;;;;;;484554;245;27857;-69
2022/10/27 03:01:38;;;;;;;1.70;1.60;;;9.80;99.90;;;;;;484545;245;27854;-69
2022/10/27 03:03:39;;;;;;;2.00;1.80;;;9.80;99.90;;;;;;484534;245;27909;-71
2022/10/27 03:05:40;;;;;;;1.20;1.20;;;9.90;99.90;;;;;;484533;245;28034;-70
2022/10/27 03:07:41;;;;;;;6.90;2.03;;;9.90;99.90;;;;;;484528;245;27875;-71
2022/10/27 03:09:43;;;;;;;1.50;1.40;;;9.90;99.90;;;;;;484533;245;28340;-69
2022/10/27 03:11:44;;;;;;;1.73;1.63;;;9.90;99.90;;;;;;484521;245;27887;-70
2022/10/27 03:13:45;;;;;;;1.40;1.30;;;10.00;99.90;;;;;;484531;245;28429;-71
2022/10/27 03:15:46;;;;;;;1.53;1.43;;;10.00;99.90;;;;;;484534;245;28321;-70
2022/10/27 03:17:48;;;;;;;1.30;1.30;;;10.00;99.90;;;;;;484538;245;27966;-71
2022/10/27 03:19:49;;;;;;;2.03;1.40;;;10.00;99.90;;;;;;485889;236;27973;-69
2022/10/27 03:21:50;;;;;;;2.10;1.33;;;10.10;99.90;;;;;;496003;238;27888;-69
2022/10/27 03:23:51;;;;;;;3.33;2.20;;;10.10;99.90;;;;;;495985;238;27827;-71
2022/10/27 03:25:53;;;;;;;1.67;1.57;;;10.10;99.90;;;;;;495995;238;27833;-70
2022/10/27 03:27:54;;;;;;;1.83;1.70;;;10.10;99.90;;;;;;495972;238;27931;-70
2022/10/27 03:29:55;;;;;;;1.70;1.60;;;10.00;99.90;;;;;;495989;238;27690;-70
2022/10/27 03:31:56;;;;;;;3.77;1.30;;;10.00;99.90;;;;;;496009;238;27807;-69
2022/10/27 03:33:58;;;;;;;1.70;1.40;;;10.00;99.90;;;;;;495998;238;27908;-70
2022/10/27 03:35:59;;;;;;;1.20;1.20;;;10.00;99.90;;;;;;495982;238;28362;-70
2022/10/27 03:38:00;;;;;;;1.50;1.50;;;10.00;99.90;;;;;;495994;238;28138;-69
2022/10/27 03:40:02;;;;;;;2.37;1.40;;;10.00;99.90;;;;;;495984;238;28125;-69
2022/10/27 03:42:03;;;;;;;2.10;2.00;;;10.00;99.90;;;;;;495995;238;27909;-70
2022/10/27 03:44:04;;;;;;;1.97;1.87;;;10.00;99.90;;;;;;496000;238;27863;-72
2022/10/27 03:46:05;;;;;;;1.90;1.80;;;10.00;99.90;;;;;;495986;238;27788;-70
2022/10/27 03:48:07;;;;;;;2.10;2.00;;;9.90;99.90;;;;;;495998;238;27984;-69
2022/10/27 03:50:08;;;;;;;2.73;2.53;;;9.90;99.90;;;;;;495984;238;27829;-69
2022/10/27 03:52:09;;;;;;;2.10;2.00;;;9.90;99.90;;;;;;495987;238;27806;-69
2022/10/27 03:54:10;;;;;;;2.00;1.90;;;9.90;99.90;;;;;;495983;238;27719;-71
2022/10/27 03:56:11;;;;;;;2.23;2.13;;;9.90;99.90;;;;;;495995;238;27826;-70
2022/10/27 03:58:13;;;;;;;2.00;1.90;;;10.00;99.90;;;;;;496019;238;28059;-71
2022/10/27 04:00:14;;;;;;;2.10;2.00;;;10.00;99.90;;;;;;496013;238;27792;-70
2022/10/27 04:02:16;;;;;;;1.80;1.70;;;10.10;99.90;;;;;;496013;238;27952;-69
2022/10/27 04:04:17;;;;;;;1.80;1.70;;;10.20;99.90;;;;;;495984;238;28451;-71
2022/10/27 04:06:18;;;;;;;1.77;1.67;;;10.20;99.90;;;;;;496021;238;28167;-70
2022/10/27 04:08:19;;;;;;;2.10;2.00;;;10.10;99.90;;;;;;496011;238;28279;-71
2022/10/27 04:10:20;;;;;;;1.70;1.60;;;10.10;99.90;;;;;;495994;238;28149;-69
2022/10/27 04:12:22;;;;;;;1.87;1.60;;;10.10;99.90;;;;;;496001;238;27818;-70
2022/10/27 04:14:23;;;;;;;2.23;2.13;;;10.10;99.90;;;;;;496005;234;27933;-70
2022/10/27 04:16:24;;;;;;;2.73;2.47;;;10.20;99.90;;;;;;496011;238;27829;-70
2022/10/27 04:18:25;;;;;;;1.93;1.87;;;10.20;99.90;;;;;;496017;238;27469;-71
2022/10/27 04:20:27;;;;;;;2.20;2.10;;;10.20;99.90;;;;;;496002;238;27787;-69
2022/10/27 04:22:28;;;;;;;2.00;1.90;;;10.00;99.90;;;;;;495993;238;27788;-70
2022/10/27 04:24:29;;;;;;;2.00;1.90;;;9.80;99.90;;;;;;496008;238;27712;-69
2022/10/27 04:26:30;;;;;;;2.20;2.10;;;9.80;99.90;;;;;;496012;238;27900;-70
2022/10/27 04:28:32;;;;;;;1.93;1.83;;;9.80;99.90;;;;;;496015;238;27803;-71
2022/10/27 04:30:33;;;;;;;2.07;1.87;;;9.80;99.90;;;;;;496010;238;27893;-69
2022/10/27 04:32:34;;;;;;;2.00;1.90;;;9.80;99.90;;;;;;496011;238;27976;-69
2022/10/27 04:34:35;;;;;;;1.93;1.83;;;9.80;99.90;;;;;;496003;238;28579;-69
2022/10/27 04:36:37;;;;;;;1.60;1.50;;;9.90;99.90;;;;;;496029;238;28166;-69
2022/10/27 04:38:38;;;;;;;1.67;1.67;;;9.90;99.90;;;;;;496054;238;28351;-70
2022/10/27 04:40:39;;;;;;;2.10;1.90;;;9.90;99.90;;;;;;495996;238;28361;-69
2022/10/27 04:42:40;;;;;;;2.13;1.93;;;9.90;99.90;;;;;;496008;238;28293;-70
2022/10/27 04:44:42;;;;;;;1.70;1.60;;;9.90;99.90;;;;;;496054;238;27817;-72
2022/10/27 04:46:43;;;;;;;2.30;1.80;;;10.00;99.90;;;;;;496010;238;27791;-70
2022/10/27 04:48:44;;;;;;;1.80;1.70;;;10.00;99.90;;;;;;496002;238;27472;-70
2022/10/27 04:50:45;;;;;;;2.97;1.50;;;10.00;99.90;;;;;;495982;238;27807;-70
2022/10/27 04:52:47;;;;;;;1.50;1.50;;;10.10;99.90;;;;;;495996;238;27954;-70
2022/10/27 04:54:48;;;;;;;1.57;1.47;;;10.10;99.90;;;;;;495974;238;27817;-71
2022/10/27 04:56:49;;;;;;;1.90;1.80;;;10.10;99.90;;;;;;496018;238;27697;-70
2022/10/27 04:58:50;;;;;;;1.80;1.70;;;10.20;99.90;;;;;;495932;239;27963;-71
2022/10/27 05:00:52;;;;;;;1.97;1.83;;;10.20;99.90;;;;;;496005;238;27421;-69
2022/10/27 05:02:53;;;;;;;1.70;1.60;;;10.20;99.90;;;;;;496051;238;28478;-71
2022/10/27 05:04:54;;;;;;;1.70;1.60;;;10.20;99.90;;;;;;496003;238;28309;-71
2022/10/27 05:06:55;;;;;;;1.77;1.67;;;10.20;99.90;;;;;;495994;238;28561;-69
2022/10/27 05:08:57;;;;;;;1.60;1.53;;;10.20;99.90;;;;;;495995;238;28527;-71
2022/10/27 05:10:58;;;;;;;1.80;1.70;;;10.20;99.90;;;;;;496008;238;27816;-69
2022/10/27 05:12:59;;;;;;;1.97;1.87;;;10.10;99.90;;;;;;496014;238;27923;-70
2022/10/27 05:15:00;;;;;;;1.67;1.57;;;10.10;99.90;;;;;;496000;238;27712;-72
2022/10/27 05:17:02;;;;;;;2.10;1.90;;;10.10;99.90;;;;;;496011;238;27579;-70
2022/10/27 05:19:03;;;;;;;1.70;1.60;;;10.20;99.90;;;;;;496000;238;28029;-69
2022/10/27 05:21:04;;;;;;;1.73;1.63;;;10.20;99.90;;;;;;495976;238;27909;-69
2022/10/27 05:23:05;;;;;;;1.80;1.67;;;10.20;99.90;;;;;;496019;238;28052;-70
2022/10/27 05:25:07;;;;;;;1.70;1.60;;;10.20;99.90;;;;;;496001;238;27809;-71
2022/10/27 05:27:08;;;;;;;1.60;1.50;;;10.30;99.90;;;;;;496005;238;27917;-70
2022/10/27 05:29:09;;;;;;;1.90;1.80;;;10.30;99.90;;;;;;496001;238;28282;-70
2022/10/27 05:31:10;;;;;;;2.70;1.70;;;10.30;99.90;;;;;;496013;238;28061;-70
2022/10/27 05:33:12;;;;;;;2.03;1.80;;;10.50;99.90;;;;;;495999;238;28273;-69
2022/10/27 05:35:13;;;;;;;2.53;1.83;;;10.60;99.90;;;;;;496005;238;27800;-70
2022/10/27 05:37:14;;;;;;;1.70;1.60;;;10.70;99.90;;;;;;496020;238;27706;-70
2022/10/27 05:39:15;;;;;;;2.27;1.50;;;10.80;99.90;;;;;;495983;238;27914;-71
2022/10/27 05:41:17;;;;;;;2.00;1.63;;;11.00;99.90;;;;;;483632;233;27840;-70
2022/10/27 05:43:18;;;;;;;1.70;1.60;;;11.00;99.90;;;;;;482878;246;27932;-70
2022/10/27 05:45:19;;;;;;;1.90;1.80;;;11.00;99.90;;;;;;482902;246;27609;-70
2022/10/27 05:47:20;;;;;;;2.30;1.80;;;11.10;99.90;;;;;;482892;246;27937;-69
2022/10/27 05:49:22;;;;;;;1.77;1.57;;;11.00;99.90;;;;;;482879;246;27886;-70
2022/10/27 05:51:23;;;;;;;2.20;2.00;;;11.00;99.90;;;;;;482886;246;27955;-69
2022/10/27 05:53:24;;;;;;;1.73;1.63;;;10.70;99.90;;;;;;482918;246;28450;-69
2022/10/27 05:55:25;;;;;;;4.83;1.77;;;10.50;99.90;;;;;;482896;246;28456;-73
2022/10/27 05:57:27;;;;;;;1.80;1.70;;;10.50;99.90;;;;;;482888;246;28439;-70
2022/10/27 05:59:28;;;;;;;1.83;1.73;;;10.50;99.90;;;;;;482900;246;27893;-70
2022/10/27 06:01:29;;;;;;;3.20;2.47;;;10.60;99.90;;;;;;482882;246;27905;-70
2022/10/27 06:03:30;;;;;;;1.77;1.67;;;10.50;99.90;;;;;;482892;246;27863;-70
2022/10/27 06:05:32;;;;;;;1.93;1.83;;;10.30;99.90;;;;;;482876;246;27971;-72
2022/10/27 06:07:33;;;;;;;1.80;1.70;;;10.30;99.90;;;;;;482880;246;27953;-71
2022/10/27 06:09:34;;;;;;;2.70;1.63;;;10.30;99.90;;;;;;482892;246;27898;-70
2022/10/27 06:11:35;;;;;;;3.13;1.73;;;10.30;99.90;;;;;;482888;246;27474;-70
2022/10/27 06:13:37;;;;;;;2.80;1.70;;;10.40;99.90;;;;;;482890;246;27687;-69
2022/10/27 06:15:38;;;;;;;2.77;1.60;;;10.40;99.90;;;;;;482918;246;27935;-71
2022/10/27 06:17:39;;;;;;;2.10;1.90;;;10.50;99.90;;;;;;482918;246;27682;-69
2022/10/27 06:19:40;;;;;;;2.07;1.73;;;10.50;99.90;;;;;;482879;246;28480;-71
2022/10/27 06:21:42;;;;;;;2.47;1.77;;;10.70;99.90;;;;;;482872;246;28389;-70
2022/10/27 06:23:43;;;;;;;1.70;1.60;;;10.80;99.90;;;;;;482883;246;28289;-70
2022/10/27 06:25:44;;;;;;;2.20;2.10;;;10.90;99.90;;;;;;482892;246;27495;-72
2022/10/27 06:27:45;;;;;;;2.00;1.90;;;10.70;99.90;;;;;;482890;246;27764;-69
2022/10/27 06:29:47;;;;;;;1.73;1.63;;;10.70;99.90;;;;;;482884;246;27982;-70
2022/10/27 06:31:48;;;;;;;1.90;1.80;;;10.70;99.90;;;;;;482885;246;27850;-70
2022/10/27 06:33:49;;;;;;;2.10;1.90;;;10.70;99.90;;;;;;482889;246;27864;-70
2022/10/27 06:35:50;;;;;;;1.80;1.70;;;10.70;99.90;;;;;;482871;245;27975;-73
2022/10/27 06:37:52;;;;;;;1.77;1.67;;;10.30;99.90;;;;;;482888;246;27485;-70
2022/10/27 06:39:54;;;;;;;2.30;2.10;;;10.20;99.90;;;;;;482883;246;27878;-70
2022/10/27 06:41:54;;;;;;;2.53;2.20;;;10.20;99.90;;;;;;490483;240;27980;-69
2022/10/27 06:43:55;;;;;;;2.00;1.90;;;10.30;99.90;;;;;;494644;240;28384;-70
2022/10/27 06:45:57;;;;;;;2.20;2.00;;;10.40;99.90;;;;;;494642;240;28298;-72
2022/10/27 06:47:58;;;;;;;1.73;1.63;;;10.40;99.90;;;;;;494635;240;28481;-69
2022/10/27 06:49:59;;;;;;;2.57;1.90;;;10.40;99.90;;;;;;494649;240;27521;-70
2022/10/27 06:52:00;;;;;;;1.70;1.60;;;10.50;99.90;;;;;;494648;240;27841;-69
2022/10/27 06:54:02;;;;;;;2.00;1.73;;;10.50;99.90;;;;;;494650;240;27985;-70
2022/10/27 06:56:03;;;;;;;1.90;1.80;;;10.60;99.90;;;;;;494645;240;27525;-72
2022/10/27 06:58:04;;;;;;;1.70;1.60;;;10.60;99.90;;;;;;494638;240;27471;-71
2022/10/27 07:00:05;;;;;;;1.70;1.60;;;10.70;99.90;;;;;;494643;240;27821;-70
2022/10/27 07:02:07;;;;;;;1.90;1.80;;;10.70;99.90;;;;;;494639;240;27807;-69
2022/10/27 07:04:08;;;;;;;2.10;1.90;;;10.70;99.90;;;;;;494642;240;28054;-69
2022/10/27 07:06:09;;;;;;;2.03;1.80;;;10.70;99.90;;;;;;494631;240;27840;-71
2022/10/27 07:08:10;;;;;;;1.77;1.67;;;10.70;99.90;;;;;;494646;240;27814;-70
2022/10/27 07:10:12;;;;;;;1.63;1.53;;;10.70;99.90;;;;;;494635;240;28301;-69
2022/10/27 07:12:13;;;;;;;1.70;1.60;;;10.70;99.90;;;;;;494627;240;28426;-69
2022/10/27 07:14:14;;;;;;;2.30;2.10;;;10.70;99.90;;;;;;494641;240;28526;-70
2022/10/27 07:16:15;;;;;;;2.30;2.10;;;10.70;99.90;;;;;;494640;240;27926;-70
2022/10/27 07:18:17;;;;;;;2.40;2.20;;;10.70;99.90;;;;;;494654;240;27705;-71
2022/10/27 07:20:18;;;;;;;1.90;1.80;;;10.70;99.90;;;;;;494649;240;27840;-73
2022/10/27 07:22:19;;;;;;;2.70;2.20;;;10.70;99.90;;;;;;494631;240;27734;-70
2022/10/27 07:24:20;;;;;;;2.30;2.10;;;10.70;99.90;;;;;;494639;236;27980;-71
2022/10/27 07:26:22;;;;;;;1.90;1.77;;;10.70;99.90;;;;;;494645;240;27782;-70
2022/10/27 07:28:23;;;;;;;3.07;2.00;;;10.90;99.90;;;;;;494633;240;27961;-69
2022/10/27 07:30:24;;;;;;;2.00;1.90;;;11.00;99.90;;;;;;494662;240;27864;-70
2022/10/27 07:32:25;;;;;;;3.90;2.60;;;11.10;99.90;;;;;;494668;240;27823;-69
2022/10/27 07:34:27;;;;;;;2.47;2.00;;;11.20;99.90;;;;;;494653;240;28184;-70
2022/10/27 07:36:28;;;;;;;2.00;1.90;;;11.20;99.90;;;;;;494670;240;28376;-71
2022/10/27 07:38:29;;;;;;;1.77;1.67;;;11.30;99.90;;;;;;494667;240;28304;-70
2022/10/27 07:40:30;;;;;;;2.33;2.10;;;11.40;99.90;;;;;;494654;240;27738;-70
2022/10/27 07:42:32;;;;;;;1.90;1.80;;;11.40;99.90;;;;;;494663;240;27971;-69
2022/10/27 07:44:33;;;;;;;1.90;1.80;;;11.50;99.90;;;;;;494662;240;27848;-70
2022/10/27 07:46:34;;;;;;;4.07;2.00;;;11.50;99.90;;;;;;494661;240;27945;-72
2022/10/27 07:48:35;;;;;;;3.07;2.23;;;11.50;99.90;;;;;;494668;240;27835;-70
2022/10/27 07:50:37;;;;;;;4.10;2.00;;;11.50;99.90;;;;;;494663;240;27822;-70
2022/10/27 07:52:38;;;;;;;2.87;1.80;;;11.50;99.90;;;;;;494678;240;28369;-71
2022/10/27 07:54:39;;;;;;;2.23;2.10;;;11.60;99.90;;;;;;494655;240;27842;-70
2022/10/27 07:56:40;;;;;;;3.53;2.13;;;11.60;99.90;;;;;;494671;240;27980;-70
2022/10/27 07:58:42;;;;;;;1.90;1.80;;;11.60;99.90;;;;;;494661;240;28542;-70
2022/10/27 08:00:43;;;;;;;2.20;2.10;;;11.70;99.90;;;;;;494655;240;28376;-70
2022/10/27 08:02:44;;;;;;;2.70;2.50;;;11.70;99.90;;;;;;494664;240;28370;-70
2022/10/27 08:04:45;;;;;;;4.77;2.10;;;11.70;99.90;;;;;;494658;240;28492;-71
2022/10/27 08:06:47;;;;;;;2.57;2.37;;;11.80;99.90;;;;;;494666;240;27952;-70
2022/10/27 08:08:48;;;;;;;2.70;2.50;;;11.80;99.90;;;;;;494669;240;27936;-70
2022/10/27 08:10:49;;;;;;;2.50;2.40;;;11.80;99.90;;;;;;494654;240;27931;-69
2022/10/27 08:12:50;;;;;;;2.50;2.30;;;11.90;99.90;;;;;;494665;240;28179;-72
2022/10/27 08:14:52;;;;;;;2.20;2.10;;;11.90;99.90;;;;;;494659;240;27934;-70
2022/10/27 08:16:53;;;;;;;3.07;2.70;;;12.00;99.90;;;;;;494656;240;28112;-69
2022/10/27 08:18:54;;;;;;;2.63;2.40;;;12.10;99.90;;;;;;494662;240;28043;-70
2022/10/27 08:20:55;;;;;;;2.13;2.03;;;12.20;99.90;;;;;;494661;240;27898;-70
2022/10/27 08:22:57;;;;;;;2.67;2.50;;;12.20;99.90;;;;;;494644;240;27937;-72
2022/10/27 08:24:58;;;;;;;2.40;2.30;;;12.20;99.90;;;;;;494651;240;28683;-70
2022/10/27 08:26:59;;;;;;;3.40;2.27;;;12.30;99.90;;;;;;494663;240;28583;-69
2022/10/27 08:29:00;;;;;;;1.90;1.80;;;12.30;99.90;;;;;;494667;240;28524;-70
2022/10/27 08:31:02;;;;;;;1.97;1.87;;;12.40;99.90;;;;;;494560;240;28092;-69
2022/10/27 08:33:03;;;;;;;2.00;1.90;;;12.50;99.90;;;;;;494662;240;27993;-71
2022/10/27 08:35:04;;;;;;;2.80;1.60;;;12.60;99.90;;;;;;494646;240;27759;-70
2022/10/27 08:37:05;;;;;;;1.90;1.80;;;12.70;99.90;;;;;;494657;240;28114;-72
2022/10/27 08:39:07;;;;;;;2.93;1.80;;;12.70;99.90;;;;;;494652;240;28080;-70
2022/10/27 08:41:08;;;;;;;2.10;2.00;;;12.80;99.90;;;;;;494664;240;27956;-69
2022/10/27 08:43:09;;;;;;;2.87;2.23;;;12.90;99.90;;;;;;494556;240;28076;-72
2022/10/27 08:45:10;;;;;;;2.10;2.00;;;13.00;99.90;;;;;;494657;240;28254;-70
2022/10/27 08:47:12;;;;;;;2.63;2.30;;;13.00;99.90;;;;;;494644;240;28196;-70
2022/10/27 08:49:13;;;;;;;1.97;1.87;;;13.00;99.90;;;;;;494661;240;28430;-69
2022/10/27 08:51:14;;;;;;;2.60;1.80;;;13.10;99.90;;;;;;494656;236;28532;-70
2022/10/27 08:53:15;;;;;;;2.73;2.10;;;13.30;99.90;;;;;;494665;240;28429;-71
2022/10/27 08:55:17;;;;;;;1.70;1.60;;;13.60;99.90;;;;;;494659;240;28771;-71
2022/10/27 08:57:18;;;;;;;2.00;1.70;;;13.80;99.90;;;;;;494658;240;28030;-69
2022/10/27 08:59:19;;;;;;;2.27;1.93;;;13.80;99.90;;;;;;494649;240;28126;-69
2022/10/27 09:01:20;;;;;;;2.50;1.80;;;13.80;99.90;;;;;;494663;240;27909;-70
2022/10/27 09:03:22;;;;;;;1.70;1.60;;;13.90;99.90;;;;;;494644;240;28018;-70
2022/10/27 09:05:23;;;;;;;1.93;1.80;;;13.90;99.90;;;;;;494658;240;27964;-71
2022/10/27 09:07:24;;;;;;;2.80;1.93;;;14.00;99.90;;;;;;494659;240;28029;-71
2022/10/27 09:09:25;;;;;;;3.87;2.07;;;14.10;99.90;;;;;;494655;240;28302;-70
2022/10/27 09:11:27;;;;;;;1.73;1.63;;;14.20;99.90;;;;;;494659;240;28331;-70
2022/10/27 09:13:28;;;;;;;1.90;1.63;;;14.20;99.90;;;;;;494658;240;28634;-70
2022/10/27 09:15:29;;;;;;;2.53;1.83;;;14.30;99.90;;;;;;494658;236;28577;-70
2022/10/27 09:17:31;;;;;;;2.00;1.90;;;14.50;99.90;;;;;;494659;240;28643;-70
2022/10/27 09:19:32;;;;;;;2.57;2.03;;;14.70;99.90;;;;;;494652;240;28663;-72
2022/10/27 09:21:33;;;;;;;2.00;1.90;;;14.70;99.90;;;;;;494660;240;28088;-70
2022/10/27 09:23:34;;;;;;;4.23;2.30;;;14.80;99.90;;;;;;494639;240;28090;-70
2022/10/27 09:25:36;;;;;;;3.50;1.70;;;15.10;99.90;;;;;;494649;240;28388;-69
2022/10/27 09:27:37;;;;;;;2.80;2.10;;;15.10;99.90;;;;;;494653;240;28390;-70
2022/10/27 09:29:38;;;;;;;2.70;1.80;;;15.20;99.90;;;;;;494658;240;28273;-69
2022/10/27 09:31:39;;;;;;;3.40;2.17;;;15.20;99.90;;;;;;494661;240;28265;-70
2022/10/27 09:33:41;;;;;;;4.17;2.40;;;15.30;99.90;;;;;;494649;240;28160;-71
2022/10/27 09:35:42;;;;;;;3.00;2.70;;;15.40;99.90;;;;;;494660;240;28081;-70
2022/10/27 09:37:44;;;;;;;5.20;2.40;;;15.50;99.90;;;;;;494658;240;28290;-71
2022/10/27 09:39:44;;;;;;;4.00;2.20;;;15.50;99.90;;;;;;494609;240;28666;-71
2022/10/27 09:41:46;;;;;;;2.67;2.20;;;15.50;99.90;;;;;;494648;240;28857;-70
2022/10/27 09:43:47;;;;;;;2.90;2.70;;;15.60;99.90;;;;;;494632;240;28947;-70
2022/10/27 09:45:49;;;;;;;6.50;2.47;;;15.80;99.90;;;;;;494658;240;28180;-69
2022/10/27 09:47:49;;;;;;;2.40;2.30;;;15.80;99.90;;;;;;494584;240;28423;-70
2022/10/27 09:49:52;;;;;;;5.50;2.63;;;15.90;99.90;;;;;;494650;240;29153;-71
2022/10/27 09:51:52;;;;;;;4.03;2.40;;;15.90;99.90;;;;;;494553;240;28418;-70
2022/10/27 09:53:53;;;;;;;2.53;2.33;;;16.00;99.90;;;;;;494660;240;28320;-71
2022/10/27 09:55:54;;;;;;;4.20;2.10;;;16.00;99.90;;;;;;494652;240;28382;-70
2022/10/27 09:57:56;;;;;;;3.53;2.30;;;16.00;99.90;;;;;;494656;240;28716;-70
2022/10/27 09:59:57;;;;;;;2.90;2.17;;;16.10;99.90;;;;;;494645;240;28722;-72
2022/10/27 10:01:58;;;;;;;5.13;2.40;;;16.20;99.90;;;;;;494642;240;28718;-70
2022/10/27 10:03:59;;;;;;;2.77;2.57;;;16.30;99.90;;;;;;494637;240;29184;-71
2022/10/27 10:06:01;;;;;;;3.60;2.20;;;16.30;99.90;;;;;;494645;240;29312;-72
2022/10/27 10:08:02;;;;;;;4.00;2.30;;;16.40;99.90;;;;;;494644;240;29296;-70
2022/10/27 10:10:03;;;;;;;2.27;2.10;;;16.40;99.90;;;;;;494625;240;29263;-73
2022/10/27 10:12:04;;;;;;;5.53;2.37;;;16.40;99.90;;;;;;494642;240;28700;-70
2022/10/27 10:14:06;;;;;;;3.33;2.63;;;16.40;99.90;;;;;;494646;240;28730;-70
2022/10/27 10:16:07;;;;;;;3.83;2.10;;;16.50;99.90;;;;;;494621;240;28801;-71
2022/10/27 10:18:08;;;;;;;2.60;1.90;;;16.70;99.90;;;;;;494651;240;28841;-70
2022/10/27 10:20:09;;;;;;;2.73;2.53;;;16.70;99.90;;;;;;492933;237;28712;-71
2022/10/27 10:22:11;;;;;;;3.77;2.70;;;16.70;99.90;;;;;;492482;241;28828;-70
2022/10/27 10:24:12;;;;;;;2.33;2.03;;;16.80;99.90;;;;;;492488;241;28792;-70
2022/10/27 10:26:13;;;;;;;4.20;2.40;;;16.90;99.90;;;;;;492493;241;28824;-70
2022/10/27 10:28:14;;;;;;;3.23;2.20;;;17.00;99.90;;;;;;492493;241;29409;-71
2022/10/27 10:30:16;;;;;;;3.43;1.90;;;17.00;99.90;;;;;;492452;241;29312;-72
2022/10/27 10:32:17;;;;;;;4.03;2.20;;;17.10;99.90;;;;;;492478;241;29292;-70